Time;durP1;ratioP1;P1;durP2;ratioP2;P2;SDS_P1;SDS_P2;PMS_P1;PMS_P2;Temp;Humidity;BMP_temperature;BMP_pressure;BME280_temperature;BME280_humidity;BME280_pressure;Samples;Min_cycle;Max_cycle;Signal;HPM_P1;HPM_P2
2021/10/10 00:01:07;;;;;;;22.40;11.93;;;;;;;;;;4997685;28;20408;-68
2021/10/10 00:03:33;;;;;;;21.88;13.30;;;;;;;;;;4999945;28;20034;-67
2021/10/10 00:05:58;;;;;;;25.73;13.95;;;;;;;;;;5006795;28;20038;-66
2021/10/10 00:08:23;;;;;;;25.00;13.00;;;;;;;;;;4996808;28;20427;-68
2021/10/10 00:10:49;;;;;;;25.23;13.02;;;;;;;;;;5001615;28;20065;-69
2021/10/10 00:13:14;;;;;;;23.05;13.05;;;;;;;;;;4992271;28;20034;-68
2021/10/10 00:15:39;;;;;;;22.67;12.70;;;;;;;;;;4996054;28;20026;-67
2021/10/10 00:18:05;;;;;;;23.27;13.30;;;;;;;;;;4995620;28;20065;-67
2021/10/10 00:20:30;;;;;;;24.25;12.75;;;;;;;;;;4994941;28;20029;-67
2021/10/10 00:22:55;;;;;;;23.92;13.15;;;;;;;;;;4991233;28;20022;-68
2021/10/10 00:25:21;;;;;;;21.25;12.18;;;;;;;;;;4994195;28;20029;-68
2021/10/10 00:27:46;;;;;;;24.70;12.57;;;;;;;;;;4994961;28;20372;-68
2021/10/10 00:30:11;;;;;;;20.52;13.05;;;;;;;;;;4999672;28;20030;-67
2021/10/10 00:32:36;;;;;;;24.70;12.55;;;;;;;;;;5001935;28;20052;-68
2021/10/10 00:35:02;;;;;;;22.30;12.23;;;;;;;;;;4995572;28;20493;-67
2021/10/10 00:37:27;;;;;;;25.52;13.30;;;;;;;;;;4994581;28;20192;-68
2021/10/10 00:39:53;;;;;;;24.30;12.98;;;;;;;;;;4995767;28;20026;-67
2021/10/10 00:42:19;;;;;;;23.08;12.68;;;;;;;;;;5004271;28;20389;-67
2021/10/10 00:44:45;;;;;;;23.85;12.93;;;;;;;;;;4995921;28;20025;-67
2021/10/10 00:47:11;;;;;;;26.30;13.32;;;;;;;;;;5003281;28;20022;-67
2021/10/10 00:49:36;;;;;;;27.45;12.98;;;;;;;;;;4992010;28;20506;-68
2021/10/10 00:52:02;;;;;;;25.13;13.23;;;;;;;;;;5000922;28;20153;-67
2021/10/10 00:54:28;;;;;;;27.13;13.80;;;;;;;;;;4998047;28;20022;-67
2021/10/10 00:56:54;;;;;;;23.38;14.43;;;;;;;;;;4995725;28;20049;-66
2021/10/10 00:59:21;;;;;;;26.38;14.30;;;;;;;;;;4992053;28;20625;-67
2021/10/10 01:01:46;;;;;;;23.40;13.65;;;;;;;;;;4997165;28;20487;-68
2021/10/10 01:04:12;;;;;;;26.58;14.20;;;;;;;;;;4995709;28;20030;-69
2021/10/10 01:06:37;;;;;;;20.90;13.05;;;;;;;;;;4993282;28;20117;-68
2021/10/10 01:09:02;;;;;;;21.23;13.52;;;;;;;;;;4991585;28;20033;-68
2021/10/10 01:11:28;;;;;;;25.17;14.38;;;;;;;;;;4998012;28;20037;-67
2021/10/10 01:13:53;;;;;;;21.77;13.38;;;;;;;;;;5002130;28;20083;-67
2021/10/10 01:16:18;;;;;;;24.15;13.90;;;;;;;;;;4993428;28;20113;-67
2021/10/10 01:18:44;;;;;;;25.88;15.23;;;;;;;;;;5005670;28;20032;-67
2021/10/10 01:21:09;;;;;;;23.67;13.07;;;;;;;;;;4996545;28;20092;-69
2021/10/10 01:23:34;;;;;;;20.45;13.32;;;;;;;;;;4996594;28;21485;-68
2021/10/10 01:25:59;;;;;;;22.58;13.30;;;;;;;;;;4999464;28;20171;-68
2021/10/10 01:28:24;;;;;;;24.60;14.02;;;;;;;;;;4996841;28;20478;-68
2021/10/10 01:30:49;;;;;;;23.38;13.85;;;;;;;;;;4996037;28;20121;-68
2021/10/10 01:33:15;;;;;;;22.95;13.05;;;;;;;;;;4996924;28;20015;-69
2021/10/10 01:35:40;;;;;;;26.48;14.05;;;;;;;;;;4992478;28;20029;-68
2021/10/10 01:38:06;;;;;;;25.50;13.50;;;;;;;;;;4998560;28;20034;-67
2021/10/10 01:40:33;;;;;;;27.02;14.82;;;;;;;;;;5002643;28;20021;-67
2021/10/10 01:43:01;;;;;;;22.15;14.02;;;;;;;;;;4998782;28;20539;-68
2021/10/10 01:45:26;;;;;;;25.20;13.90;;;;;;;;;;4990751;28;20034;-68
2021/10/10 01:47:51;;;;;;;24.42;13.70;;;;;;;;;;4996830;28;20088;-68
2021/10/10 01:50:16;;;;;;;24.90;14.48;;;;;;;;;;4997660;28;20034;-68
2021/10/10 01:52:43;;;;;;;25.13;15.60;;;;;;;;;;4999838;28;20034;-67
2021/10/10 01:55:09;;;;;;;29.67;16.13;;;;;;;;;;4995763;28;20095;-68
2021/10/10 01:57:34;;;;;;;30.52;16.10;;;;;;;;;;4995583;28;20026;-68
2021/10/10 01:59:59;;;;;;;27.95;17.15;;;;;;;;;;5002705;28;20391;-69
2021/10/10 02:02:24;;;;;;;24.48;14.82;;;;;;;;;;4997911;28;20114;-67
2021/10/10 02:04:50;;;;;;;30.42;16.70;;;;;;;;;;4988944;28;20027;-67
2021/10/10 02:07:15;;;;;;;26.13;16.40;;;;;;;;;;4994290;28;20037;-68
2021/10/10 02:09:42;;;;;;;31.60;15.52;;;;;;;;;;4992463;28;20029;-67
2021/10/10 02:12:07;;;;;;;28.25;17.13;;;;;;;;;;4999137;28;20482;-68
2021/10/10 02:14:34;;;;;;;27.92;16.83;;;;;;;;;;4999764;28;20026;-67
2021/10/10 02:16:59;;;;;;;29.08;16.23;;;;;;;;;;4993882;28;20499;-67
2021/10/10 02:19:24;;;;;;;31.88;17.98;;;;;;;;;;4989604;28;20121;-68
2021/10/10 02:21:49;;;;;;;33.13;17.92;;;;;;;;;;4991664;28;20394;-67
2021/10/10 02:24:14;;;;;;;27.58;17.05;;;;;;;;;;4991020;28;20041;-67
2021/10/10 02:26:40;;;;;;;32.50;18.10;;;;;;;;;;4994524;28;20034;-67
2021/10/10 02:29:05;;;;;;;29.55;18.80;;;;;;;;;;4992373;28;20153;-67
2021/10/10 02:31:30;;;;;;;34.45;18.95;;;;;;;;;;5001528;28;20037;-67
2021/10/10 02:33:55;;;;;;;33.17;20.15;;;;;;;;;;4992597;28;20364;-68
2021/10/10 02:36:20;;;;;;;33.88;19.60;;;;;;;;;;5002054;28;20037;-68
2021/10/10 02:38:46;;;;;;;35.95;19.67;;;;;;;;;;4990109;28;20561;-67
2021/10/10 02:41:11;;;;;;;34.83;19.15;;;;;;;;;;4994365;28;20032;-68
2021/10/10 02:43:36;;;;;;;41.88;19.77;;;;;;;;;;4995063;28;20061;-67
2021/10/10 02:46:01;;;;;;;34.03;19.67;;;;;;;;;;5009962;28;20021;-68
2021/10/10 02:48:26;;;;;;;38.55;20.48;;;;;;;;;;4991766;28;20023;-67
2021/10/10 02:50:52;;;;;;;34.83;18.92;;;;;;;;;;4989760;28;20042;-67
2021/10/10 02:53:17;;;;;;;38.80;21.38;;;;;;;;;;4990171;28;20053;-68
2021/10/10 02:55:42;;;;;;;35.10;20.70;;;;;;;;;;4999835;28;20038;-67
2021/10/10 02:58:07;;;;;;;34.35;20.30;;;;;;;;;;4997963;28;20201;-68
2021/10/10 03:00:32;;;;;;;30.50;18.75;;;;;;;;;;4993824;28;20036;-67
2021/10/10 03:02:57;;;;;;;34.28;20.52;;;;;;;;;;4995188;28;20109;-67
2021/10/10 03:05:23;;;;;;;36.40;21.20;;;;;;;;;;5000074;28;20442;-67
2021/10/10 03:07:48;;;;;;;36.50;20.88;;;;;;;;;;5007752;28;20037;-67
2021/10/10 03:10:13;;;;;;;36.10;20.92;;;;;;;;;;5000986;28;20030;-68
2021/10/10 03:12:38;;;;;;;37.45;20.85;;;;;;;;;;4999896;28;20031;-68
2021/10/10 03:15:04;;;;;;;37.22;21.52;;;;;;;;;;4994339;28;20692;-67
2021/10/10 03:17:29;;;;;;;34.88;19.80;;;;;;;;;;4997931;28;20338;-67
2021/10/10 03:19:54;;;;;;;35.35;21.23;;;;;;;;;;4992784;28;20382;-68
2021/10/10 03:22:19;;;;;;;38.25;21.63;;;;;;;;;;5007296;28;20132;-67
2021/10/10 03:24:44;;;;;;;40.20;21.88;;;;;;;;;;5001814;28;20126;-68
2021/10/10 03:27:10;;;;;;;37.20;20.27;;;;;;;;;;4995743;28;20513;-68
2021/10/10 03:29:35;;;;;;;31.90;20.60;;;;;;;;;;4994444;28;20034;-67
2021/10/10 03:32:00;;;;;;;38.72;21.30;;;;;;;;;;5002059;28;20045;-67
2021/10/10 03:34:25;;;;;;;40.67;23.13;;;;;;;;;;4993400;28;20604;-67
2021/10/10 03:36:51;;;;;;;34.75;21.65;;;;;;;;;;4999947;28;20099;-67
2021/10/10 03:39:16;;;;;;;39.47;21.73;;;;;;;;;;4992086;28;20036;-67
2021/10/10 03:41:41;;;;;;;39.22;22.23;;;;;;;;;;5006718;28;20449;-67
2021/10/10 03:44:06;;;;;;;36.20;22.23;;;;;;;;;;4992595;28;20109;-68
2021/10/10 03:46:31;;;;;;;33.90;21.02;;;;;;;;;;4996639;28;20414;-68
2021/10/10 03:48:57;;;;;;;35.78;20.55;;;;;;;;;;5000878;28;20026;-69
2021/10/10 03:51:22;;;;;;;42.17;23.23;;;;;;;;;;5002392;28;20033;-68
2021/10/10 03:54:17;;;;;;;41.45;23.48;;;;;;;;;;4993567;28;20022;-67
2021/10/10 03:56:32;;;;;;;34.60;21.20;;;;;;;;;;4997929;28;20025;-67
2021/10/10 03:58:57;;;;;;;38.17;22.42;;;;;;;;;;5001628;28;20097;-68
2021/10/10 04:01:23;;;;;;;38.17;22.17;;;;;;;;;;4998212;28;20025;-68
2021/10/10 04:03:48;;;;;;;36.47;22.52;;;;;;;;;;5001440;28;20636;-67
2021/10/10 04:06:13;;;;;;;39.63;22.20;;;;;;;;;;4998283;28;20117;-67
2021/10/10 04:08:43;;;;;;;40.70;21.45;;;;;;;;;;4999061;28;20021;-67
2021/10/10 04:11:08;;;;;;;37.08;21.45;;;;;;;;;;5002528;28;20145;-68
2021/10/10 04:13:34;;;;;;;39.28;21.88;;;;;;;;;;5000713;28;20101;-67
2021/10/10 04:15:59;;;;;;;36.30;20.77;;;;;;;;;;4993777;28;20041;-67
2021/10/10 04:18:24;;;;;;;37.50;22.80;;;;;;;;;;4999539;28;20029;-68
2021/10/10 04:20:49;;;;;;;35.20;20.98;;;;;;;;;;4997571;28;20149;-68
2021/10/10 04:23:14;;;;;;;39.05;23.00;;;;;;;;;;5001528;28;20113;-69
2021/10/10 04:25:40;;;;;;;38.05;22.33;;;;;;;;;;4991797;28;20109;-68
2021/10/10 04:28:05;;;;;;;42.45;23.55;;;;;;;;;;4997760;28;20037;-67
2021/10/10 04:30:30;;;;;;;42.33;23.42;;;;;;;;;;5006756;28;20033;-67
2021/10/10 04:32:55;;;;;;;38.15;22.95;;;;;;;;;;4997403;28;20030;-68
2021/10/10 04:35:20;;;;;;;39.13;24.40;;;;;;;;;;4997147;28;20048;-68
2021/10/10 04:37:45;;;;;;;42.08;22.77;;;;;;;;;;5001951;28;20699;-67
2021/10/10 04:40:11;;;;;;;38.03;22.33;;;;;;;;;;4996387;28;20022;-69
2021/10/10 04:42:37;;;;;;;40.67;22.02;;;;;;;;;;5003143;28;20029;-68
2021/10/10 04:45:02;;;;;;;40.53;24.52;;;;;;;;;;5002536;28;20675;-68
2021/10/10 04:47:27;;;;;;;40.72;24.15;;;;;;;;;;4997068;28;20037;-68
2021/10/10 04:49:53;;;;;;;41.97;23.02;;;;;;;;;;4991962;28;20097;-68
2021/10/10 04:52:18;;;;;;;35.35;21.73;;;;;;;;;;4994776;28;20038;-67
2021/10/10 04:54:47;;;;;;;38.15;23.17;;;;;;;;;;4996901;28;20030;-68
2021/10/10 04:57:12;;;;;;;38.03;22.20;;;;;;;;;;4992109;28;20069;-68
2021/10/10 04:59:37;;;;;;;43.42;24.65;;;;;;;;;;4990684;28;20085;-69
2021/10/10 05:02:02;;;;;;;44.60;24.50;;;;;;;;;;5004104;28;20075;-67
2021/10/10 05:04:27;;;;;;;42.13;24.75;;;;;;;;;;4995432;28;20382;-68
2021/10/10 05:06:53;;;;;;;42.08;24.20;;;;;;;;;;5001987;28;20022;-67
2021/10/10 05:09:18;;;;;;;39.35;22.95;;;;;;;;;;4998548;28;20049;-67
2021/10/10 05:11:43;;;;;;;45.78;24.67;;;;;;;;;;5007756;28;20034;-68
2021/10/10 05:14:08;;;;;;;46.13;23.67;;;;;;;;;;4994974;28;20037;-67
2021/10/10 05:16:33;;;;;;;42.53;25.67;;;;;;;;;;4997466;28;20023;-68
2021/10/10 05:18:59;;;;;;;46.63;27.55;;;;;;;;;;4995754;28;21021;-67
2021/10/10 05:21:24;;;;;;;43.63;26.00;;;;;;;;;;4992876;28;20030;-68
2021/10/10 05:23:49;;;;;;;45.80;26.83;;;;;;;;;;4990761;28;20041;-69
2021/10/10 05:26:14;;;;;;;49.28;26.75;;;;;;;;;;4999520;28;20018;-68
2021/10/10 05:28:39;;;;;;;47.53;27.75;;;;;;;;;;5003993;28;20018;-68
2021/10/10 05:31:05;;;;;;;47.58;26.73;;;;;;;;;;5008024;28;20042;-67
2021/10/10 05:33:30;;;;;;;42.35;26.75;;;;;;;;;;4995646;28;20772;-68
2021/10/10 05:35:55;;;;;;;44.08;25.50;;;;;;;;;;4994753;28;20026;-68
2021/10/10 05:38:20;;;;;;;43.35;26.08;;;;;;;;;;4995864;28;20529;-68
2021/10/10 05:40:45;;;;;;;42.33;25.85;;;;;;;;;;4994148;28;20029;-67
2021/10/10 05:43:11;;;;;;;47.05;26.73;;;;;;;;;;4996886;28;20096;-68
2021/10/10 05:45:36;;;;;;;43.08;25.52;;;;;;;;;;4990584;28;20030;-68
2021/10/10 05:48:01;;;;;;;44.92;26.60;;;;;;;;;;4999426;28;20100;-69
2021/10/10 05:50:26;;;;;;;43.78;23.83;;;;;;;;;;4992423;28;20608;-68
2021/10/10 05:52:52;;;;;;;46.05;26.30;;;;;;;;;;4992358;28;20026;-69
2021/10/10 05:55:20;;;;;;;42.58;26.30;;;;;;;;;;4995958;28;20075;-69
2021/10/10 05:57:47;;;;;;;42.55;25.30;;;;;;;;;;4998455;28;20026;-68
2021/10/10 06:00:15;;;;;;;42.80;25.33;;;;;;;;;;4991812;28;20529;-68
2021/10/10 06:02:41;;;;;;;43.77;24.07;;;;;;;;;;4994885;28;20532;-67
2021/10/10 06:05:07;;;;;;;41.33;25.17;;;;;;;;;;4989807;28;20026;-67
2021/10/10 06:07:32;;;;;;;37.28;22.58;;;;;;;;;;4998739;28;20041;-67
2021/10/10 06:09:57;;;;;;;43.15;24.98;;;;;;;;;;5000977;28;20084;-68
2021/10/10 06:12:22;;;;;;;47.45;24.80;;;;;;;;;;5004005;28;20401;-69
2021/10/10 06:14:50;;;;;;;39.83;23.60;;;;;;;;;;4994048;28;20547;-68
2021/10/10 06:17:17;;;;;;;42.20;24.45;;;;;;;;;;4996184;28;20741;-68
2021/10/10 06:19:42;;;;;;;43.45;24.40;;;;;;;;;;5001843;28;20019;-67
2021/10/10 06:22:07;;;;;;;38.13;24.42;;;;;;;;;;5000173;28;20038;-68
2021/10/10 06:24:32;;;;;;;38.33;23.88;;;;;;;;;;4996121;28;20105;-68
2021/10/10 06:26:58;;;;;;;37.28;22.15;;;;;;;;;;4998613;28;20460;-68
2021/10/10 06:29:24;;;;;;;38.63;21.83;;;;;;;;;;4991581;28;20022;-68
2021/10/10 06:31:50;;;;;;;39.75;23.00;;;;;;;;;;4998804;28;20029;-68
2021/10/10 06:34:15;;;;;;;37.20;22.05;;;;;;;;;;5002112;28;20048;-67
2021/10/10 06:36:40;;;;;;;37.17;22.55;;;;;;;;;;4996972;28;20065;-68
2021/10/10 06:39:05;;;;;;;34.47;19.90;;;;;;;;;;4990243;28;20065;-69
2021/10/10 06:41:30;;;;;;;35.88;20.25;;;;;;;;;;4994895;28;20029;-68
2021/10/10 06:43:56;;;;;;;32.15;19.50;;;;;;;;;;4991249;28;20027;-67
2021/10/10 06:46:21;;;;;;;30.52;19.45;;;;;;;;;;5002505;28;20532;-67
2021/10/10 06:48:46;;;;;;;29.70;16.65;;;;;;;;;;4989224;28;20014;-67
2021/10/10 06:51:12;;;;;;;30.40;17.55;;;;;;;;;;4995449;28;20041;-68
2021/10/10 06:53:37;;;;;;;29.13;17.55;;;;;;;;;;5000147;28;20076;-68
2021/10/10 06:56:04;;;;;;;27.88;16.60;;;;;;;;;;4997325;28;20060;-68
2021/10/10 06:58:32;;;;;;;28.27;15.85;;;;;;;;;;4996213;28;20039;-68
2021/10/10 07:00:57;;;;;;;29.50;17.45;;;;;;;;;;5005585;28;20096;-67
2021/10/10 07:03:23;;;;;;;27.35;16.38;;;;;;;;;;5002211;28;20017;-67
2021/10/10 07:05:48;;;;;;;25.60;15.93;;;;;;;;;;5007552;28;20022;-68
2021/10/10 07:08:13;;;;;;;32.83;16.13;;;;;;;;;;5000863;28;20490;-68
2021/10/10 07:10:38;;;;;;;34.05;16.00;;;;;;;;;;4999520;28;20041;-68
2021/10/10 07:13:03;;;;;;;30.05;16.42;;;;;;;;;;5003103;28;20523;-67
2021/10/10 07:15:29;;;;;;;26.08;15.73;;;;;;;;;;5002555;28;20053;-68
2021/10/10 07:17:59;;;;;;;27.50;16.48;;;;;;;;;;5004636;28;20029;-60
2021/10/10 07:20:53;;;;;;;28.52;16.23;;;;;;;;;;5008045;28;20076;-60
2021/10/10 07:26:19;;;;;;;32.88;17.42;;;;;;;;;;5009316;28;20808;-60
2021/10/10 07:28:44;;;;;;;27.45;16.23;;;;;;;;;;5009063;28;20526;-60
2021/10/10 07:31:10;;;;;;;26.25;17.20;;;;;;;;;;5007908;28;20088;-59
2021/10/10 07:33:35;;;;;;;32.63;17.50;;;;;;;;;;5009165;28;20030;-60
2021/10/10 07:36:00;;;;;;;29.30;17.55;;;;;;;;;;5008511;28;20026;-61
2021/10/10 07:38:25;;;;;;;27.50;15.35;;;;;;;;;;5008966;28;20029;-60
2021/10/10 07:40:51;;;;;;;22.92;15.38;;;;;;;;;;5009630;28;20057;-62
2021/10/10 07:43:16;;;;;;;29.48;16.90;;;;;;;;;;5006259;28;20478;-61
2021/10/10 07:45:42;;;;;;;22.63;14.93;;;;;;;;;;5010353;28;20033;-61
2021/10/10 07:48:08;;;;;;;26.08;16.05;;;;;;;;;;5008986;28;20040;-60
2021/10/10 07:50:33;;;;;;;25.45;15.35;;;;;;;;;;5008475;28;20502;-61
2021/10/10 07:52:58;;;;;;;26.88;15.00;;;;;;;;;;5008043;28;20060;-61
2021/10/10 07:55:23;;;;;;;25.77;16.17;;;;;;;;;;5007457;28;20049;-60
2021/10/10 07:57:48;;;;;;;26.77;15.95;;;;;;;;;;5007435;28;20486;-61
2021/10/10 08:00:14;;;;;;;26.10;15.50;;;;;;;;;;5009002;28;20056;-61
2021/10/10 08:03:08;;;;;;;23.27;14.93;;;;;;;;;;5005331;28;20031;-61
2021/10/10 08:05:38;;;;;;;21.85;13.80;;;;;;;;;;4987595;28;20137;-60
2021/10/10 08:08:04;;;;;;;22.98;14.55;;;;;;;;;;4982818;28;20379;-61
2021/10/10 08:10:29;;;;;;;28.42;16.38;;;;;;;;;;4991946;28;20152;-60
2021/10/10 08:12:54;;;;;;;26.30;16.92;;;;;;;;;;4989021;28;20102;-61
2021/10/10 08:15:19;;;;;;;27.15;15.55;;;;;;;;;;4988811;28;20030;-61
2021/10/10 08:17:45;;;;;;;29.05;16.08;;;;;;;;;;4988440;28;20851;-60
2021/10/10 08:20:10;;;;;;;26.13;15.70;;;;;;;;;;4988952;28;20037;-61
2021/10/10 08:22:37;;;;;;;24.50;14.68;;;;;;;;;;4988790;28;20038;-60
2021/10/10 08:25:07;;;;;;;23.50;14.90;;;;;;;;;;4989190;28;20030;-59
2021/10/10 08:27:32;;;;;;;23.23;14.52;;;;;;;;;;4988396;28;20493;-59
2021/10/10 08:29:57;;;;;;;22.33;14.63;;;;;;;;;;4988562;28;20042;-61
2021/10/10 08:32:22;;;;;;;24.98;14.77;;;;;;;;;;4992118;28;20034;-60
2021/10/10 08:34:48;;;;;;;22.77;14.00;;;;;;;;;;4987893;28;20030;-61
2021/10/10 08:37:13;;;;;;;25.90;14.90;;;;;;;;;;4988687;28;20113;-60
2021/10/10 08:39:38;;;;;;;24.40;15.52;;;;;;;;;;4988277;28;20022;-60
2021/10/10 08:42:04;;;;;;;23.95;15.30;;;;;;;;;;4992981;28;20109;-60
2021/10/10 08:44:35;;;;;;;21.88;14.95;;;;;;;;;;4996068;28;20014;-61
2021/10/10 08:47:14;;;;;;;26.85;14.52;;;;;;;;;;5002136;28;20418;-61
2021/10/10 08:49:39;;;;;;;23.08;15.00;;;;;;;;;;5002646;28;20150;-60
2021/10/10 08:52:04;;;;;;;25.15;15.13;;;;;;;;;;4997865;28;20462;-62
2021/10/10 08:54:29;;;;;;;25.02;15.32;;;;;;;;;;4998449;28;20027;-61
2021/10/10 08:56:55;;;;;;;25.17;15.93;;;;;;;;;;5005189;28;20026;-61
2021/10/10 08:59:22;;;;;;;25.23;14.73;;;;;;;;;;5008412;28;20089;-61
2021/10/10 09:01:47;;;;;;;25.23;14.70;;;;;;;;;;5008602;28;20030;-61
2021/10/10 09:04:13;;;;;;;24.42;14.93;;;;;;;;;;4991561;28;20030;-61
2021/10/10 09:06:40;;;;;;;24.58;15.45;;;;;;;;;;5003631;28;20026;-61
2021/10/10 09:09:24;;;;;;;23.02;14.88;;;;;;;;;;4992837;28;20026;-61
2021/10/10 09:11:49;;;;;;;27.20;15.18;;;;;;;;;;5015488;28;20477;-61
2021/10/10 09:14:14;;;;;;;23.33;14.75;;;;;;;;;;4996066;28;20030;-60
2021/10/10 09:16:39;;;;;;;23.67;14.30;;;;;;;;;;5002996;28;20083;-59
2021/10/10 09:19:23;;;;;;;25.08;15.18;;;;;;;;;;4991178;28;20068;-59
2021/10/10 09:21:58;;;;;;;32.60;16.88;;;;;;;;;;4997047;28;20018;-60
2021/10/10 09:24:27;;;;;;;28.02;17.23;;;;;;;;;;4999410;28;20091;-60
2021/10/10 09:26:52;;;;;;;25.75;15.93;;;;;;;;;;4999757;28;20747;-59
2021/10/10 09:29:37;;;;;;;29.27;16.45;;;;;;;;;;4990756;28;20099;-62
2021/10/10 09:32:08;;;;;;;27.48;16.75;;;;;;;;;;4999629;28;20042;-61
2021/10/10 09:34:34;;;;;;;26.25;17.08;;;;;;;;;;4997211;28;20038;-62
2021/10/10 09:37:04;;;;;;;27.92;17.17;;;;;;;;;;4996168;28;20113;-60
2021/10/10 09:39:41;;;;;;;28.33;17.98;;;;;;;;;;4996916;28;20030;-61
2021/10/10 09:42:06;;;;;;;28.55;17.58;;;;;;;;;;4996475;28;20029;-61
2021/10/10 09:44:42;;;;;;;27.80;16.50;;;;;;;;;;4998318;28;20101;-60
2021/10/10 09:47:07;;;;;;;26.70;16.85;;;;;;;;;;5002983;28;20034;-61
2021/10/10 09:49:34;;;;;;;28.73;16.05;;;;;;;;;;4998961;28;20040;-60
2021/10/10 09:52:08;;;;;;;24.92;17.42;;;;;;;;;;5002213;28;20468;-60
2021/10/10 09:54:48;;;;;;;29.63;18.05;;;;;;;;;;4999225;28;20087;-60
2021/10/10 09:57:13;;;;;;;27.13;16.73;;;;;;;;;;4994416;28;20020;-61
2021/10/10 09:59:38;;;;;;;27.77;16.50;;;;;;;;;;4997651;28;20050;-60
2021/10/10 10:02:04;;;;;;;27.85;17.65;;;;;;;;;;4997979;28;20018;-61
2021/10/10 10:04:40;;;;;;;29.00;17.85;;;;;;;;;;5006565;28;20029;-60
2021/10/10 10:07:05;;;;;;;34.15;17.95;;;;;;;;;;5001177;28;20031;-60
2021/10/10 10:09:31;;;;;;;27.92;17.27;;;;;;;;;;4996402;28;20030;-60
2021/10/10 10:11:57;;;;;;;30.38;17.27;;;;;;;;;;5002227;28;20462;-60
2021/10/10 10:14:24;;;;;;;26.70;17.60;;;;;;;;;;5003228;28;20026;-59
2021/10/10 10:16:49;;;;;;;26.13;17.42;;;;;;;;;;5000033;28;20105;-60
2021/10/10 10:19:15;;;;;;;29.58;17.60;;;;;;;;;;5004025;28;20128;-61
2021/10/10 10:21:41;;;;;;;27.88;17.70;;;;;;;;;;5004823;28;20525;-60
2021/10/10 10:24:07;;;;;;;28.38;18.15;;;;;;;;;;5009907;28;20021;-60
2021/10/10 10:26:33;;;;;;;29.60;17.40;;;;;;;;;;5004729;28;20025;-59
2021/10/10 10:29:00;;;;;;;29.02;16.85;;;;;;;;;;5001727;28;20022;-59
2021/10/10 10:31:26;;;;;;;27.05;17.50;;;;;;;;;;4997274;28;20037;-59
2021/10/10 10:33:54;;;;;;;26.30;17.35;;;;;;;;;;4998252;28;20022;-59
2021/10/10 10:36:39;;;;;;;26.58;16.83;;;;;;;;;;5000373;28;20586;-59
2021/10/10 10:39:04;;;;;;;25.45;16.20;;;;;;;;;;5006726;28;20045;-60
2021/10/10 10:41:50;;;;;;;27.02;18.13;;;;;;;;;;5004512;28;20026;-59
2021/10/10 10:44:35;;;;;;;26.35;16.92;;;;;;;;;;5001614;28;20033;-62
2021/10/10 10:47:14;;;;;;;26.48;16.25;;;;;;;;;;4998967;28;20022;-60
2021/10/10 10:49:45;;;;;;;27.23;17.42;;;;;;;;;;4999221;28;20025;-60
2021/10/10 10:52:21;;;;;;;28.38;17.23;;;;;;;;;;5002250;28;20041;-61
2021/10/10 10:54:46;;;;;;;27.40;17.63;;;;;;;;;;5003641;28;20473;-62
2021/10/10 10:57:31;;;;;;;29.98;17.48;;;;;;;;;;4999592;28;20031;-60
2021/10/10 11:00:06;;;;;;;26.67;16.67;;;;;;;;;;4998794;28;20052;-60
2021/10/10 11:02:49;;;;;;;26.48;16.50;;;;;;;;;;5001367;28;20021;-59
2021/10/10 11:05:33;;;;;;;25.42;16.40;;;;;;;;;;5002325;28;20029;-60
2021/10/10 11:08:18;;;;;;;24.00;16.08;;;;;;;;;;5001015;28;20034;-63
2021/10/10 11:11:02;;;;;;;26.67;16.65;;;;;;;;;;4996459;28;20142;-60
2021/10/10 11:13:36;;;;;;;26.75;15.75;;;;;;;;;;4998953;28;20033;-61
2021/10/10 11:16:14;;;;;;;29.30;17.25;;;;;;;;;;4992769;28;20467;-62
2021/10/10 11:18:48;;;;;;;27.33;17.38;;;;;;;;;;5003402;28;20030;-60
2021/10/10 11:21:15;;;;;;;27.52;16.38;;;;;;;;;;5003464;28;20026;-61
2021/10/10 11:23:40;;;;;;;26.98;16.55;;;;;;;;;;5003818;28;20343;-61
2021/10/10 11:26:10;;;;;;;26.52;16.00;;;;;;;;;;5001040;28;20037;-61
2021/10/10 11:28:37;;;;;;;24.15;15.73;;;;;;;;;;4995499;28;20374;-60
2021/10/10 11:31:19;;;;;;;23.48;15.32;;;;;;;;;;4992831;28;20061;-62
2021/10/10 11:33:46;;;;;;;23.88;14.63;;;;;;;;;;4995801;28;20090;-61
2021/10/10 11:36:12;;;;;;;21.88;13.00;;;;;;;;;;4990593;28;20106;-61
2021/10/10 11:38:47;;;;;;;24.05;13.68;;;;;;;;;;4999291;28;20014;-60
2021/10/10 11:41:13;;;;;;;20.55;13.48;;;;;;;;;;4994305;28;20496;-60
2021/10/10 11:43:38;;;;;;;23.90;12.82;;;;;;;;;;5001762;28;20046;-61
2021/10/10 11:46:04;;;;;;;20.13;12.27;;;;;;;;;;4993489;28;20433;-62
2021/10/10 11:48:36;;;;;;;22.33;13.13;;;;;;;;;;5004619;28;20021;-60
2021/10/10 11:51:02;;;;;;;19.65;11.57;;;;;;;;;;5004780;28;20362;-60
2021/10/10 11:53:41;;;;;;;21.30;13.35;;;;;;;;;;4995285;28;20027;-60
2021/10/10 11:56:06;;;;;;;21.27;13.15;;;;;;;;;;4999111;28;20057;-61
2021/10/10 11:58:33;;;;;;;17.98;11.48;;;;;;;;;;5003550;28;20042;-60
2021/10/10 12:01:09;;;;;;;19.30;12.82;;;;;;;;;;5003960;28;20023;-60
2021/10/10 12:03:34;;;;;;;19.05;12.35;;;;;;;;;;5002345;28;20085;-61
2021/10/10 12:05:59;;;;;;;20.08;12.35;;;;;;;;;;4999350;28;20382;-61
2021/10/10 12:08:24;;;;;;;18.85;11.35;;;;;;;;;;5002252;28;20026;-61
2021/10/10 12:10:50;;;;;;;20.98;11.80;;;;;;;;;;5005167;28;20116;-61
2021/10/10 12:13:16;;;;;;;19.30;12.07;;;;;;;;;;5005494;28;20018;-62
2021/10/10 12:15:41;;;;;;;24.85;13.65;;;;;;;;;;5001635;28;20474;-61
2021/10/10 12:18:27;;;;;;;18.27;12.55;;;;;;;;;;4999364;28;20023;-64
2021/10/10 12:21:12;;;;;;;15.57;10.63;;;;;;;;;;5004860;28;20554;-63
2021/10/10 12:23:38;;;;;;;16.13;10.02;;;;;;;;;;5005532;28;20116;-62
2021/10/10 12:26:03;;;;;;;18.02;10.73;;;;;;;;;;5007709;28;20338;-62
2021/10/10 12:28:34;;;;;;;20.08;11.05;;;;;;;;;;4998393;28;20018;-62
2021/10/10 12:30:59;;;;;;;17.75;9.48;;;;;;;;;;5009548;28;20493;-63
2021/10/10 12:33:35;;;;;;;13.63;8.82;;;;;;;;;;5003702;28;20018;-62
2021/10/10 12:36:03;;;;;;;13.23;8.55;;;;;;;;;;5003796;28;20029;-63
2021/10/10 12:38:36;;;;;;;14.20;9.15;;;;;;;;;;4996366;28;20026;-62
2021/10/10 12:41:21;;;;;;;16.15;8.27;;;;;;;;;;5005389;28;20026;-62
2021/10/10 12:43:46;;;;;;;15.20;9.35;;;;;;;;;;4998306;28;20022;-62
2021/10/10 12:46:11;;;;;;;13.90;8.82;;;;;;;;;;4994461;28;20019;-61
2021/10/10 12:48:36;;;;;;;13.93;8.05;;;;;;;;;;5007738;28;20078;-63
2021/10/10 12:51:04;;;;;;;14.23;8.32;;;;;;;;;;5007022;28;20030;-62
2021/10/10 12:53:33;;;;;;;11.88;7.55;;;;;;;;;;5009501;28;20377;-62
2021/10/10 12:56:13;;;;;;;12.65;7.25;;;;;;;;;;5002209;28;20021;-62
2021/10/10 12:58:45;;;;;;;11.70;7.40;;;;;;;;;;4999665;28;20053;-63
2021/10/10 13:01:11;;;;;;;10.20;6.65;;;;;;;;;;5000128;28;20111;-62
2021/10/10 13:03:36;;;;;;;8.98;5.72;;;;;;;;;;4999951;28;20100;-61
2021/10/10 13:06:01;;;;;;;8.88;5.80;;;;;;;;;;5001226;28;20466;-62
2021/10/10 13:08:26;;;;;;;10.38;5.68;;;;;;;;;;5003463;28;20105;-62
2021/10/10 13:10:51;;;;;;;8.18;5.22;;;;;;;;;;5006770;28;20048;-62
2021/10/10 13:13:16;;;;;;;13.38;5.82;;;;;;;;;;4999944;28;20026;-61
2021/10/10 13:15:42;;;;;;;8.40;4.90;;;;;;;;;;5002074;28;20065;-61
2021/10/10 13:18:07;;;;;;;8.57;4.55;;;;;;;;;;4998878;28;20096;-61
2021/10/10 13:20:32;;;;;;;9.77;4.88;;;;;;;;;;5005844;28;20030;-61
2021/10/10 13:22:57;;;;;;;8.80;4.65;;;;;;;;;;4996843;28;20061;-61
2021/10/10 13:25:22;;;;;;;11.27;4.90;;;;;;;;;;5008079;28;20021;-62
2021/10/10 13:27:48;;;;;;;11.30;5.67;;;;;;;;;;4999438;28;20639;-62
2021/10/10 13:30:13;;;;;;;7.18;4.43;;;;;;;;;;4999388;28;20289;-60
2021/10/10 13:32:38;;;;;;;9.10;5.10;;;;;;;;;;4993970;28;20034;-61
2021/10/10 13:35:03;;;;;;;8.90;5.18;;;;;;;;;;5003388;28;20026;-61
2021/10/10 13:37:29;;;;;;;10.30;5.60;;;;;;;;;;4996552;28;20030;-61
2021/10/10 13:39:54;;;;;;;8.18;5.10;;;;;;;;;;4997657;28;20064;-62
2021/10/10 13:42:20;;;;;;;9.65;5.05;;;;;;;;;;5001244;28;20490;-61
2021/10/10 13:44:45;;;;;;;8.65;4.93;;;;;;;;;;4999604;28;20114;-61
2021/10/10 13:47:11;;;;;;;10.30;5.15;;;;;;;;;;4995910;28;20022;-61
2021/10/10 13:49:43;;;;;;;8.30;4.90;;;;;;;;;;4990323;28;20029;-61
2021/10/10 13:52:09;;;;;;;8.65;4.45;;;;;;;;;;4995791;28;20128;-60
2021/10/10 13:54:36;;;;;;;8.98;4.68;;;;;;;;;;4993601;28;20561;-61
2021/10/10 13:57:01;;;;;;;9.00;5.00;;;;;;;;;;4998639;28;20036;-60
2021/10/10 13:59:26;;;;;;;7.47;4.70;;;;;;;;;;4997046;28;20054;-61
2021/10/10 14:01:51;;;;;;;8.20;4.90;;;;;;;;;;4999220;28;20399;-61
2021/10/10 14:04:17;;;;;;;8.33;4.50;;;;;;;;;;4993461;28;20269;-61
2021/10/10 14:06:42;;;;;;;8.50;5.07;;;;;;;;;;4990372;28;20261;-62
2021/10/10 14:09:07;;;;;;;10.00;4.67;;;;;;;;;;4995672;28;20018;-61
2021/10/10 14:11:32;;;;;;;7.65;4.80;;;;;;;;;;5004725;28;20387;-61
2021/10/10 14:13:57;;;;;;;7.80;5.27;;;;;;;;;;5001683;28;20026;-62
2021/10/10 14:16:22;;;;;;;12.17;5.37;;;;;;;;;;4999583;28;20380;-61
2021/10/10 14:18:48;;;;;;;10.55;6.15;;;;;;;;;;4997391;28;20725;-61
2021/10/10 14:21:13;;;;;;;10.48;5.70;;;;;;;;;;4992539;28;20393;-63